createdAt,value
2023-05-21T00:02:37.807Z,100.00
2023-05-21T00:05:15.244Z,100.00
2023-05-21T00:07:49.404Z,100.00
2023-05-21T00:10:19.100Z,100.00
2023-05-21T00:12:47.808Z,100.00
2023-05-21T00:15:14.695Z,100.00
2023-05-21T00:17:44.208Z,100.00
2023-05-21T00:22:51.812Z,100.00
2023-05-21T00:25:26.140Z,100.00
2023-05-21T00:27:56.769Z,100.00
2023-05-21T00:30:23.737Z,100.00
2023-05-21T00:32:53.096Z,100.00
2023-05-21T00:35:20.081Z,100.00
2023-05-21T00:37:56.675Z,100.00
2023-05-21T00:40:23.514Z,100.00
2023-05-21T00:42:51.766Z,100.00
2023-05-21T00:45:25.875Z,100.00
2023-05-21T00:47:58.476Z,100.00
2023-05-21T00:50:27.872Z,100.00
2023-05-21T00:52:54.662Z,100.00
2023-05-21T00:55:33.657Z,100.00
2023-05-21T00:58:00.467Z,100.00
2023-05-21T01:00:29.045Z,100.00
2023-05-21T01:02:55.988Z,100.00
2023-05-21T01:05:25.266Z,100.00
2023-05-21T01:07:53.007Z,100.00
2023-05-21T01:10:20.546Z,100.00
2023-05-21T01:12:53.248Z,100.00
2023-05-21T01:15:21.156Z,100.00
2023-05-21T01:17:55.022Z,100.00
2023-05-21T01:20:24.197Z,100.00
2023-05-21T01:25:35.568Z,100.00
2023-05-21T01:31:00.143Z,100.00
2023-05-21T01:33:43.522Z,100.00
2023-05-21T01:36:26.947Z,100.00
2023-05-21T01:39:28.465Z,100.00
2023-05-21T01:42:04.098Z,100.00
2023-05-21T01:44:35.917Z,100.00
2023-05-21T01:47:18.769Z,100.00
2023-05-21T01:49:46.732Z,100.00
2023-05-21T01:52:16.097Z,100.00
2023-05-21T01:54:52.749Z,100.00
2023-05-21T01:57:19.608Z,100.00
2023-05-21T01:59:56.809Z,100.00
2023-05-21T02:02:23.447Z,100.00
2023-05-21T02:04:50.185Z,100.00
2023-05-21T02:07:18.453Z,100.00
2023-05-21T02:09:49.903Z,100.00
2023-05-21T02:12:17.904Z,100.00
2023-05-21T02:14:56.267Z,100.00
2023-05-21T02:17:24.452Z,100.00
2023-05-21T02:19:59.821Z,100.00
2023-05-21T02:22:27.076Z,100.00
2023-05-21T02:24:57.620Z,100.00
2023-05-21T02:27:24.096Z,100.00
2023-05-21T02:29:58.350Z,100.00
2023-05-21T02:32:29.514Z,100.00
2023-05-21T02:34:58.684Z,100.00
2023-05-21T02:37:34.602Z,100.00
2023-05-21T02:40:06.103Z,100.00
2023-05-21T02:42:36.618Z,100.00
2023-05-21T02:45:07.821Z,100.00
2023-05-21T02:47:34.619Z,100.00
2023-05-21T02:50:02.198Z,100.00
2023-05-21T02:52:29.710Z,100.00
2023-05-21T02:54:56.629Z,100.00
2023-05-21T02:57:23.439Z,100.00
2023-05-21T02:59:52.138Z,100.00
2023-05-21T03:02:19.048Z,100.00
2023-05-21T03:04:51.102Z,100.00
2023-05-21T03:07:20.050Z,100.00
2023-05-21T03:09:54.677Z,100.00
2023-05-21T03:12:21.353Z,100.00
2023-05-21T03:14:58.998Z,100.00
2023-05-21T03:20:19.066Z,100.00
2023-05-21T03:22:46.481Z,100.00
2023-05-21T03:25:16.837Z,100.00
2023-05-21T03:27:44.020Z,100.00
2023-05-21T03:30:11.112Z,100.00
2023-05-21T03:32:41.679Z,100.00
2023-05-21T03:37:58.611Z,100.00
2023-05-21T03:40:28.948Z,100.00
2023-05-21T03:42:57.307Z,100.00
2023-05-21T03:45:24.479Z,100.00
2023-05-21T03:51:56.775Z,100.00
2023-05-21T03:54:39.959Z,100.00
2023-05-21T03:57:07.336Z,100.00
2023-05-21T03:59:34.536Z,100.00
2023-05-21T04:02:01.336Z,100.00
2023-05-21T04:04:44.356Z,100.00
2023-05-21T04:07:14.683Z,100.00
2023-05-21T04:09:44.193Z,100.00
2023-05-21T04:12:13.933Z,100.00
2023-05-21T04:14:42.275Z,100.00
2023-05-21T04:17:09.428Z,100.00
2023-05-21T04:19:36.567Z,100.00
2023-05-21T04:22:08.375Z,100.00
2023-05-21T04:24:34.945Z,100.00
2023-05-21T04:27:01.759Z,100.00
2023-05-21T04:29:32.926Z,100.00
2023-05-21T04:32:00.702Z,100.00
2023-05-21T04:34:29.956Z,100.00
2023-05-21T04:39:42.720Z,100.00
2023-05-21T04:42:12.790Z,100.00
2023-05-21T04:44:47.792Z,100.00
2023-05-21T04:47:22.076Z,100.00
2023-05-21T04:49:54.062Z,100.00
2023-05-21T04:52:24.563Z,100.00
2023-05-21T04:54:51.118Z,100.00
2023-05-21T04:57:18.440Z,100.00
2023-05-21T04:59:46.202Z,100.00
2023-05-21T05:02:14.035Z,100.00
2023-05-21T05:04:43.154Z,100.00
2023-05-21T05:07:14.381Z,100.00
2023-05-21T05:09:43.637Z,100.00
2023-05-21T05:12:11.856Z,100.00
2023-05-21T05:14:38.889Z,100.00
2023-05-21T05:17:05.741Z,100.00
2023-05-21T05:19:36.697Z,100.00
2023-05-21T05:22:16.233Z,100.00
2023-05-21T05:25:07.822Z,100.00
2023-05-21T05:27:36.418Z,100.00
2023-05-21T05:30:05.327Z,100.00
2023-05-21T05:32:32.377Z,100.00
2023-05-21T05:35:03.866Z,100.00
2023-05-21T05:40:23.681Z,100.00
2023-05-21T05:42:58.078Z,100.00
2023-05-21T05:48:55.308Z,100.00
2023-05-21T05:51:22.392Z,100.00
2023-05-21T05:53:55.861Z,100.00
2023-05-21T05:59:03.420Z,100.00
2023-05-21T06:01:32.094Z,100.00
2023-05-21T06:04:07.562Z,100.00
2023-05-21T06:06:35.376Z,100.00
2023-05-21T06:09:02.706Z,100.00
2023-05-21T06:11:29.264Z,100.00
2023-05-21T06:14:05.385Z,100.00
2023-05-21T06:16:34.853Z,100.00
2023-05-21T06:19:07.747Z,100.00
2023-05-21T06:21:37.384Z,100.00
2023-05-21T06:24:12.421Z,100.00
2023-05-21T06:26:44.784Z,100.00
2023-05-21T06:29:12.601Z,100.00
2023-05-21T06:31:41.737Z,100.00
2023-05-21T06:34:09.153Z,100.00
2023-05-21T06:36:59.056Z,100.00
2023-05-21T06:39:29.000Z,100.00
2023-05-21T06:41:55.904Z,100.00
2023-05-21T06:44:23.995Z,100.00
2023-05-21T06:47:06.410Z,100.00
2023-05-21T06:49:33.366Z,100.00
2023-05-21T06:51:59.944Z,100.00
2023-05-21T06:54:27.663Z,100.00
2023-05-21T07:02:53.266Z,100.00
2023-05-21T07:08:12.342Z,100.00
2023-05-21T07:10:39.287Z,100.00
2023-05-21T07:13:06.456Z,98.80
2023-05-21T07:15:45.530Z,94.23
2023-05-21T07:18:17.765Z,91.44
2023-05-21T07:20:50.937Z,92.01
2023-05-21T07:23:21.762Z,85.21
2023-05-21T07:25:52.638Z,84.86
2023-05-21T07:31:04.451Z,81.67
2023-05-21T07:33:40.420Z,82.35
2023-05-21T07:36:16.176Z,80.09
2023-05-21T07:38:45.065Z,82.67
2023-05-21T07:44:32.123Z,78.60
2023-05-21T07:49:55.463Z,76.25
2023-05-21T07:52:25.212Z,76.18
2023-05-21T07:57:37.820Z,74.34
2023-05-21T08:03:16.391Z,77.45
2023-05-21T08:14:20.820Z,84.54
2023-05-21T08:16:56.911Z,85.25
2023-05-21T08:19:27.533Z,83.75
2023-05-21T08:24:50.590Z,84.11
2023-05-21T08:32:59.792Z,84.78
2023-05-21T08:44:09.365Z,85.40
2023-05-21T08:58:07.665Z,78.74
2023-05-21T09:06:11.340Z,69.40
2023-05-21T09:08:53.140Z,69.50
2023-05-21T09:21:33.954Z,71.80
2023-05-21T09:27:18.927Z,70.44
2023-05-21T09:32:36.258Z,70.51
2023-05-21T09:37:52.624Z,70.69
2023-05-21T09:44:25.569Z,66.17
2023-05-21T09:47:04.343Z,66.60
2023-05-21T10:15:02.987Z,64.77
2023-05-21T10:17:34.025Z,63.91
2023-05-21T10:20:10.773Z,62.83
2023-05-21T10:25:40.620Z,64.46
2023-05-21T10:28:13.434Z,65.18
2023-05-21T10:34:13.933Z,64.39
2023-05-21T10:42:38.802Z,60.67
2023-05-21T11:05:59.693Z,56.42
2023-05-21T11:17:49.766Z,52.94
2023-05-21T11:20:29.085Z,53.13
2023-05-21T11:23:12.857Z,50.01
2023-05-21T11:25:51.501Z,48.56
2023-05-21T11:28:37.817Z,44.74
2023-05-21T11:31:32.715Z,44.76
2023-05-21T11:37:31.890Z,45.25
2023-05-21T11:40:55.785Z,44.43
2023-05-21T11:43:25.343Z,44.22
2023-05-21T11:45:57.066Z,43.26
2023-05-21T11:51:25.639Z,44.14
2023-05-21T11:57:03.335Z,42.58
2023-05-21T12:02:22.232Z,42.57
2023-05-21T12:04:50.607Z,41.96
2023-05-21T12:15:04.090Z,42.22
2023-05-21T12:35:30.605Z,43.82
2023-05-21T12:40:48.300Z,43.71
2023-05-21T12:43:15.300Z,41.49
2023-05-21T12:48:24.976Z,41.63
2023-05-21T12:50:53.310Z,41.04
2023-05-21T13:00:05.192Z,39.39
2023-05-21T13:02:35.307Z,39.67
2023-05-21T13:08:11.069Z,36.09
2023-05-21T13:17:05.300Z,33.51
2023-05-21T13:22:56.303Z,33.38
2023-05-21T13:25:46.197Z,33.14
2023-05-21T13:28:23.798Z,33.46
2023-05-21T13:31:09.336Z,34.09
2023-05-21T13:33:55.609Z,34.75
2023-05-21T13:39:28.878Z,35.40
2023-05-21T13:47:41.680Z,35.20
2023-05-21T13:58:55.851Z,35.19
2023-05-21T14:02:04.901Z,35.33
2023-05-21T14:07:49.814Z,35.88
2023-05-21T14:13:07.753Z,34.87
2023-05-21T14:15:51.078Z,34.73
2023-05-21T14:18:20.031Z,35.49
2023-05-21T14:20:46.915Z,35.42
2023-05-21T14:26:18.731Z,36.03
2023-05-21T14:31:29.951Z,36.01
2023-05-21T14:33:58.855Z,36.57
2023-05-21T14:40:04.320Z,36.72
2023-05-21T14:46:33.508Z,36.54
2023-05-21T14:49:21.846Z,36.84
2023-05-21T14:51:51.472Z,36.16
2023-05-21T14:57:05.089Z,36.27
2023-05-21T15:05:36.157Z,36.33
2023-05-21T15:10:46.332Z,36.25
2023-05-21T15:21:47.374Z,35.43
2023-05-21T15:30:21.265Z,35.36
2023-05-21T15:32:58.197Z,35.34
2023-05-21T15:35:27.014Z,36.35
2023-05-21T15:38:04.593Z,36.36
2023-05-21T15:40:33.427Z,36.42
2023-05-21T15:43:03.160Z,37.32
2023-05-21T15:45:31.652Z,36.49
2023-05-21T15:47:59.665Z,36.76
2023-05-21T15:50:33.715Z,36.50
2023-05-21T15:53:09.264Z,36.66
2023-05-21T16:01:13.352Z,36.43
2023-05-21T16:03:41.969Z,36.66
2023-05-21T16:17:46.236Z,34.17
2023-05-21T16:20:29.159Z,34.04
2023-05-21T16:26:50.393Z,34.46
2023-05-21T16:35:01.306Z,34.76
2023-05-21T16:37:32.660Z,35.29
2023-05-21T16:40:01.621Z,35.31
2023-05-21T16:51:51.230Z,34.93
2023-05-21T16:57:07.473Z,34.76
2023-05-21T16:59:44.567Z,34.37
2023-05-21T17:02:27.808Z,34.62
2023-05-21T17:05:02.933Z,34.32
2023-05-21T17:10:35.157Z,34.63
2023-05-21T17:19:53.605Z,34.62
2023-05-21T17:41:40.974Z,36.26
2023-05-21T17:49:43.529Z,36.60
2023-05-21T17:52:12.962Z,36.52
2023-05-21T17:54:40.802Z,36.81
2023-05-21T17:57:16.865Z,37.07
2023-05-21T17:59:56.683Z,36.86
2023-05-21T18:02:27.482Z,36.92
2023-05-21T18:05:02.251Z,37.25
2023-05-21T18:07:38.654Z,37.90
2023-05-21T18:10:12.415Z,37.56
2023-05-21T18:20:40.994Z,38.41
2023-05-21T20:07:00.748Z,64.44
2023-05-21T20:35:10.468Z,71.06
2023-05-21T20:40:36.235Z,71.61
2023-05-21T20:43:09.521Z,71.64
2023-05-21T20:45:47.958Z,71.71
2023-05-21T20:48:16.798Z,72.18
2023-05-21T20:53:37.414Z,73.47
2023-05-21T20:56:40.029Z,73.46
2023-05-21T20:59:13.640Z,73.95
2023-05-21T21:01:41.611Z,73.98
2023-05-21T21:06:53.945Z,75.38
2023-05-21T21:12:24.121Z,76.15
2023-05-21T21:14:56.159Z,76.34
2023-05-21T21:17:23.445Z,77.05
2023-05-21T21:19:52.642Z,77.51
2023-05-21T21:22:25.830Z,78.41
2023-05-21T21:24:56.147Z,79.14
2023-05-21T21:27:34.478Z,79.77
2023-05-21T21:32:47.743Z,81.07
2023-05-21T21:35:23.544Z,81.73
2023-05-21T21:37:56.293Z,83.05
2023-05-21T21:40:23.819Z,85.12
2023-05-21T21:42:50.684Z,86.09
2023-05-21T21:45:17.501Z,88.03
2023-05-21T21:47:46.397Z,89.41
2023-05-21T21:50:13.363Z,91.19
2023-05-21T21:55:30.045Z,93.97
2023-05-21T21:57:56.961Z,95.24
2023-05-21T22:00:27.017Z,96.22
2023-05-21T22:02:55.816Z,97.85
2023-05-21T22:05:26.781Z,99.03
2023-05-21T22:07:57.572Z,100.00
2023-05-21T22:10:32.388Z,100.00
2023-05-21T22:13:03.142Z,100.00
2023-05-21T22:15:32.489Z,100.00
2023-05-21T22:20:46.570Z,100.00
2023-05-21T22:23:22.630Z,100.00
2023-05-21T22:25:50.585Z,100.00
2023-05-21T22:28:27.671Z,100.00
2023-05-21T22:30:57.078Z,100.00
2023-05-21T22:33:44.298Z,100.00
2023-05-21T22:36:12.448Z,100.00
2023-05-21T22:41:33.998Z,100.00
2023-05-21T22:44:19.327Z,100.00
2023-05-21T22:46:57.582Z,100.00
2023-05-21T22:49:25.329Z,100.00
2023-05-21T22:51:57.936Z,100.00
2023-05-21T22:54:25.232Z,100.00
2023-05-21T22:56:54.531Z,100.00
2023-05-21T22:59:22.255Z,100.00
2023-05-21T23:07:18.213Z,100.00
2023-05-21T23:09:47.426Z,100.00
2023-05-21T23:12:16.607Z,100.00
2023-05-21T23:14:44.199Z,100.00
2023-05-21T23:17:12.051Z,100.00
2023-05-21T23:19:39.219Z,100.00
2023-05-21T23:24:48.560Z,100.00
2023-05-21T23:27:15.661Z,100.00
2023-05-21T23:29:43.762Z,100.00
2023-05-21T23:32:13.682Z,100.00
2023-05-21T23:34:41.572Z,100.00
2023-05-21T23:37:11.384Z,100.00
2023-05-21T23:42:24.701Z,100.00
2023-05-21T23:44:53.460Z,100.00
2023-05-21T23:47:20.184Z,100.00
2023-05-21T23:50:43.854Z,100.00
2023-05-21T23:53:15.538Z,100.00
2023-05-21T23:55:42.310Z,100.00
2023-05-21T23:58:09.009Z,100.00
